sensor_id;sensor_type;location;lat;lon;timestamp;temperature;humidity
52731;DHT22;38624;53.242;6.974;2023-03-12T00:00:01;-1.10;99.90
52731;DHT22;38624;53.242;6.974;2023-03-12T00:02:28;-0.60;99.90
52731;DHT22;38624;53.242;6.974;2023-03-12T00:04:54;0.20;99.90
52731;DHT22;38624;53.242;6.974;2023-03-12T00:07:20;-1.10;99.90
52731;DHT22;38624;53.242;6.974;2023-03-12T00:09:45;0.50;99.90
52731;DHT22;38624;53.242;6.974;2023-03-12T00:12:11;-0.40;99.90
52731;DHT22;38624;53.242;6.974;2023-03-12T00:14:38;-1.20;99.90
52731;DHT22;38624;53.242;6.974;2023-03-12T00:17:03;-1.30;99.90
52731;DHT22;38624;53.242;6.974;2023-03-12T00:19:29;-1.30;99.90
52731;DHT22;38624;53.242;6.974;2023-03-12T00:21:55;0.60;99.90
52731;DHT22;38624;53.242;6.974;2023-03-12T00:24:21;-1.30;99.90
52731;DHT22;38624;53.242;6.974;2023-03-12T00:26:46;-0.90;99.90
52731;DHT22;38624;53.242;6.974;2023-03-12T00:29:12;-1.30;99.90
52731;DHT22;38624;53.242;6.974;2023-03-12T00:31:38;0.00;99.90
52731;DHT22;38624;53.242;6.974;2023-03-12T00:34:03;-1.30;99.90
52731;DHT22;38624;53.242;6.974;2023-03-12T00:36:30;-0.70;99.90
52731;DHT22;38624;53.242;6.974;2023-03-12T00:38:57;-0.60;99.90
52731;DHT22;38624;53.242;6.974;2023-03-12T00:41:24;-1.20;99.90
52731;DHT22;38624;53.242;6.974;2023-03-12T00:43:51;-1.30;99.90
52731;DHT22;38624;53.242;6.974;2023-03-12T00:46:17;-1.20;99.90
52731;DHT22;38624;53.242;6.974;2023-03-12T00:48:43;0.20;99.90
52731;DHT22;38624;53.242;6.974;2023-03-12T00:51:10;-1.30;99.90
52731;DHT22;38624;53.242;6.974;2023-03-12T00:53:36;-1.30;99.90
52731;DHT22;38624;53.242;6.974;2023-03-12T00:56:03;-0.70;99.90
52731;DHT22;38624;53.242;6.974;2023-03-12T00:58:28;-1.30;99.90
52731;DHT22;38624;53.242;6.974;2023-03-12T01:00:54;0.40;99.90
52731;DHT22;38624;53.242;6.974;2023-03-12T01:03:20;-1.30;99.90
52731;DHT22;38624;53.242;6.974;2023-03-12T01:05:45;0.30;99.90
52731;DHT22;38624;53.242;6.974;2023-03-12T01:08:13;-1.30;99.90
52731;DHT22;38624;53.242;6.974;2023-03-12T01:10:42;-1.20;99.90
52731;DHT22;38624;53.242;6.974;2023-03-12T01:13:08;-1.20;99.90
52731;DHT22;38624;53.242;6.974;2023-03-12T01:15:33;-1.00;99.90
52731;DHT22;38624;53.242;6.974;2023-03-12T01:17:59;-0.10;99.90
52731;DHT22;38624;53.242;6.974;2023-03-12T01:20:25;-1.30;99.90
52731;DHT22;38624;53.242;6.974;2023-03-12T01:22:51;-1.30;99.90
52731;DHT22;38624;53.242;6.974;2023-03-12T01:25:17;-1.30;99.90
52731;DHT22;38624;53.242;6.974;2023-03-12T01:27:43;-1.30;99.90
52731;DHT22;38624;53.242;6.974;2023-03-12T01:30:09;-1.30;99.90
52731;DHT22;38624;53.242;6.974;2023-03-12T01:32:35;-1.30;99.90
52731;DHT22;38624;53.242;6.974;2023-03-12T01:35:01;0.50;99.90
52731;DHT22;38624;53.242;6.974;2023-03-12T01:37:27;0.20;99.90
52731;DHT22;38624;53.242;6.974;2023-03-12T01:39:53;-1.40;99.90
52731;DHT22;38624;53.242;6.974;2023-03-12T01:42:19;-1.40;99.90
52731;DHT22;38624;53.242;6.974;2023-03-12T01:44:54;-1.40;99.90
52731;DHT22;38624;53.242;6.974;2023-03-12T01:47:20;-0.40;99.90
52731;DHT22;38624;53.242;6.974;2023-03-12T01:49:47;-1.60;99.90
52731;DHT22;38624;53.242;6.974;2023-03-12T01:52:16;-1.60;99.90
52731;DHT22;38624;53.242;6.974;2023-03-12T01:54:51;-1.70;99.90
52731;DHT22;38624;53.242;6.974;2023-03-12T01:57:21;-1.00;99.90
52731;DHT22;38624;53.242;6.974;2023-03-12T01:59:53;-1.80;99.90
52731;DHT22;38624;53.242;6.974;2023-03-12T02:02:21;-1.80;99.90
52731;DHT22;38624;53.242;6.974;2023-03-12T02:05:44;-1.80;99.90
52731;DHT22;38624;53.242;6.974;2023-03-12T02:07:42;-1.80;99.90
52731;DHT22;38624;53.242;6.974;2023-03-12T02:10:08;-1.80;99.90
52731;DHT22;38624;53.242;6.974;2023-03-12T02:12:34;-1.90;99.90
52731;DHT22;38624;53.242;6.974;2023-03-12T02:15:00;-1.80;99.90
52731;DHT22;38624;53.242;6.974;2023-03-12T02:17:25;-0.50;99.90
52731;DHT22;38624;53.242;6.974;2023-03-12T02:22:26;-1.60;99.90
52731;DHT22;38624;53.242;6.974;2023-03-12T02:24:57;-1.60;99.90
52731;DHT22;38624;53.242;6.974;2023-03-12T02:27:31;-1.60;99.90
52731;DHT22;38624;53.242;6.974;2023-03-12T02:29:59;-1.60;99.90
52731;DHT22;38624;53.242;6.974;2023-03-12T02:32:30;-1.60;99.90
52731;DHT22;38624;53.242;6.974;2023-03-12T02:34:58;-1.60;99.90
52731;DHT22;38624;53.242;6.974;2023-03-12T02:37:24;-0.20;99.90
52731;DHT22;38624;53.242;6.974;2023-03-12T02:40:06;-1.50;99.90
52731;DHT22;38624;53.242;6.974;2023-03-12T02:42:34;-1.40;99.90
52731;DHT22;38624;53.242;6.974;2023-03-12T02:45:01;-1.40;99.90
52731;DHT22;38624;53.242;6.974;2023-03-12T02:47:27;-1.30;99.90
52731;DHT22;38624;53.242;6.974;2023-03-12T02:49:53;0.00;99.90
52731;DHT22;38624;53.242;6.974;2023-03-12T02:52:19;-0.20;99.90
52731;DHT22;38624;53.242;6.974;2023-03-12T02:54:44;-1.20;99.90
52731;DHT22;38624;53.242;6.974;2023-03-12T02:57:10;-1.50;99.90
52731;DHT22;38624;53.242;6.974;2023-03-12T02:59:36;-1.20;99.90
52731;DHT22;38624;53.242;6.974;2023-03-12T03:02:01;-1.20;99.90
52731;DHT22;38624;53.242;6.974;2023-03-12T03:04:29;-0.70;99.90
52731;DHT22;38624;53.242;6.974;2023-03-12T03:06:55;-1.00;99.90
52731;DHT22;38624;53.242;6.974;2023-03-12T03:09:21;-0.40;99.90
52731;DHT22;38624;53.242;6.974;2023-03-12T03:11:48;0.70;99.90
52731;DHT22;38624;53.242;6.974;2023-03-12T03:14:14;-0.80;99.90
52731;DHT22;38624;53.242;6.974;2023-03-12T03:16:40;-0.80;99.90
52731;DHT22;38624;53.242;6.974;2023-03-12T03:19:06;-0.80;99.90
52731;DHT22;38624;53.242;6.974;2023-03-12T03:21:32;-0.80;99.90
52731;DHT22;38624;53.242;6.974;2023-03-12T03:23:59;-0.80;99.90
52731;DHT22;38624;53.242;6.974;2023-03-12T03:26:25;-0.80;99.90
52731;DHT22;38624;53.242;6.974;2023-03-12T03:28:51;0.70;99.90
52731;DHT22;38624;53.242;6.974;2023-03-12T03:31:17;-0.60;99.90
52731;DHT22;38624;53.242;6.974;2023-03-12T03:33:43;0.20;99.90
52731;DHT22;38624;53.242;6.974;2023-03-12T03:36:10;-0.50;99.90
52731;DHT22;38624;53.242;6.974;2023-03-12T03:38:38;-0.50;99.90
52731;DHT22;38624;53.242;6.974;2023-03-12T03:41:04;1.10;99.90
52731;DHT22;38624;53.242;6.974;2023-03-12T03:43:29;0.30;99.90
52731;DHT22;38624;53.242;6.974;2023-03-12T03:45:56;0.00;99.90
52731;DHT22;38624;53.242;6.974;2023-03-12T03:48:22;-0.30;99.90
52731;DHT22;38624;53.242;6.974;2023-03-12T03:50:48;-0.30;99.90
52731;DHT22;38624;53.242;6.974;2023-03-12T03:53:13;1.00;99.90
52731;DHT22;38624;53.242;6.974;2023-03-12T03:55:39;-0.30;99.90
52731;DHT22;38624;53.242;6.974;2023-03-12T03:58:06;1.20;99.90
52731;DHT22;38624;53.242;6.974;2023-03-12T04:00:32;0.60;99.90
52731;DHT22;38624;53.242;6.974;2023-03-12T04:02:59;0.60;99.90
52731;DHT22;38624;53.242;6.974;2023-03-12T04:05:24;-0.20;99.90
52731;DHT22;38624;53.242;6.974;2023-03-12T04:07:53;0.50;99.90
52731;DHT22;38624;53.242;6.974;2023-03-12T04:10:20;-0.10;99.90
52731;DHT22;38624;53.242;6.974;2023-03-12T04:12:46;1.00;99.90
52731;DHT22;38624;53.242;6.974;2023-03-12T04:15:12;-0.10;99.90
52731;DHT22;38624;53.242;6.974;2023-03-12T04:17:37;1.10;99.90
52731;DHT22;38624;53.242;6.974;2023-03-12T04:20:03;0.50;99.90
52731;DHT22;38624;53.242;6.974;2023-03-12T04:22:32;-0.10;99.90
52731;DHT22;38624;53.242;6.974;2023-03-12T04:24:58;0.00;99.90
52731;DHT22;38624;53.242;6.974;2023-03-12T04:27:23;1.00;99.90
52731;DHT22;38624;53.242;6.974;2023-03-12T04:29:49;-0.10;99.90
52731;DHT22;38624;53.242;6.974;2023-03-12T04:32:15;1.50;99.90
52731;DHT22;38624;53.242;6.974;2023-03-12T04:34:40;-0.10;99.90
52731;DHT22;38624;53.242;6.974;2023-03-12T04:37:07;-0.10;99.90
52731;DHT22;38624;53.242;6.974;2023-03-12T04:39:35;1.60;99.90
52731;DHT22;38624;53.242;6.974;2023-03-12T04:42:01;-0.10;99.90
52731;DHT22;38624;53.242;6.974;2023-03-12T04:44:27;-0.10;99.90
52731;DHT22;38624;53.242;6.974;2023-03-12T04:46:52;-0.10;99.90
52731;DHT22;38624;53.242;6.974;2023-03-12T04:49:18;0.10;99.90
52731;DHT22;38624;53.242;6.974;2023-03-12T04:51:44;1.40;99.90
52731;DHT22;38624;53.242;6.974;2023-03-12T04:54:09;0.00;99.90
52731;DHT22;38624;53.242;6.974;2023-03-12T04:56:35;0.00;99.90
52731;DHT22;38624;53.242;6.974;2023-03-12T04:59:01;0.10;99.90
52731;DHT22;38624;53.242;6.974;2023-03-12T05:01:29;1.40;99.90
52731;DHT22;38624;53.242;6.974;2023-03-12T05:03:56;0.10;99.90
52731;DHT22;38624;53.242;6.974;2023-03-12T05:06:22;0.10;99.90
52731;DHT22;38624;53.242;6.974;2023-03-12T05:08:48;1.10;99.90
52731;DHT22;38624;53.242;6.974;2023-03-12T05:11:14;0.10;99.90
52731;DHT22;38624;53.242;6.974;2023-03-12T05:13:40;0.20;99.90
52731;DHT22;38624;53.242;6.974;2023-03-12T05:16:07;1.10;99.90
52731;DHT22;38624;53.242;6.974;2023-03-12T05:18:33;1.20;99.90
52731;DHT22;38624;53.242;6.974;2023-03-12T05:21:01;1.70;99.90
52731;DHT22;38624;53.242;6.974;2023-03-12T05:23:27;0.20;99.90
52731;DHT22;38624;53.242;6.974;2023-03-12T05:25:53;0.50;99.90
52731;DHT22;38624;53.242;6.974;2023-03-12T05:28:19;0.20;99.90
52731;DHT22;38624;53.242;6.974;2023-03-12T05:30:45;0.20;99.90
52731;DHT22;38624;53.242;6.974;2023-03-12T05:33:11;1.50;99.90
52731;DHT22;38624;53.242;6.974;2023-03-12T05:35:37;1.30;99.90
52731;DHT22;38624;53.242;6.974;2023-03-12T05:38:02;0.70;99.90
52731;DHT22;38624;53.242;6.974;2023-03-12T05:40:28;0.10;99.90
52731;DHT22;38624;53.242;6.974;2023-03-12T05:42:54;1.40;99.90
52731;DHT22;38624;53.242;6.974;2023-03-12T05:45:20;0.20;99.90
52731;DHT22;38624;53.242;6.974;2023-03-12T05:47:45;0.90;99.90
52731;DHT22;38624;53.242;6.974;2023-03-12T05:50:11;0.20;99.90
52731;DHT22;38624;53.242;6.974;2023-03-12T05:52:37;1.20;99.90
52731;DHT22;38624;53.242;6.974;2023-03-12T05:55:03;0.20;99.90
52731;DHT22;38624;53.242;6.974;2023-03-12T05:57:29;0.20;99.90
52731;DHT22;38624;53.242;6.974;2023-03-12T05:59:54;1.20;99.90
52731;DHT22;38624;53.242;6.974;2023-03-12T06:02:20;0.80;99.90
52731;DHT22;38624;53.242;6.974;2023-03-12T06:04:46;1.40;99.90
52731;DHT22;38624;53.242;6.974;2023-03-12T06:07:11;0.20;99.90
52731;DHT22;38624;53.242;6.974;2023-03-12T06:09:37;0.30;99.90
52731;DHT22;38624;53.242;6.974;2023-03-12T06:12:03;0.30;99.90
52731;DHT22;38624;53.242;6.974;2023-03-12T06:14:29;0.30;99.90
52731;DHT22;38624;53.242;6.974;2023-03-12T06:16:54;0.40;99.90
52731;DHT22;38624;53.242;6.974;2023-03-12T06:19:20;0.40;99.90
52731;DHT22;38624;53.242;6.974;2023-03-12T06:21:46;1.80;99.90
52731;DHT22;38624;53.242;6.974;2023-03-12T06:24:11;0.50;99.90
52731;DHT22;38624;53.242;6.974;2023-03-12T06:26:38;1.80;99.90
52731;DHT22;38624;53.242;6.974;2023-03-12T06:29:04;1.50;99.90
52731;DHT22;38624;53.242;6.974;2023-03-12T06:31:30;1.50;99.90
52731;DHT22;38624;53.242;6.974;2023-03-12T06:33:56;1.00;99.90
52731;DHT22;38624;53.242;6.974;2023-03-12T06:36:21;0.60;99.90
52731;DHT22;38624;53.242;6.974;2023-03-12T06:38:49;0.60;99.90
52731;DHT22;38624;53.242;6.974;2023-03-12T06:41:16;0.60;99.90
52731;DHT22;38624;53.242;6.974;2023-03-12T06:43:43;0.60;99.90
52731;DHT22;38624;53.242;6.974;2023-03-12T06:46:12;0.70;99.90
52731;DHT22;38624;53.242;6.974;2023-03-12T06:48:38;0.70;99.90
52731;DHT22;38624;53.242;6.974;2023-03-12T06:51:10;0.70;99.90
52731;DHT22;38624;53.242;6.974;2023-03-12T06:53:36;0.70;99.90
52731;DHT22;38624;53.242;6.974;2023-03-12T06:56:02;0.70;99.90
52731;DHT22;38624;53.242;6.974;2023-03-12T06:58:28;0.70;99.90
52731;DHT22;38624;53.242;6.974;2023-03-12T07:00:54;0.80;99.90
52731;DHT22;38624;53.242;6.974;2023-03-12T07:03:20;0.80;99.90
52731;DHT22;38624;53.242;6.974;2023-03-12T07:05:48;0.90;99.90
52731;DHT22;38624;53.242;6.974;2023-03-12T07:08:14;2.20;99.90
52731;DHT22;38624;53.242;6.974;2023-03-12T07:10:40;0.90;99.90
52731;DHT22;38624;53.242;6.974;2023-03-12T07:13:06;1.20;99.90
52731;DHT22;38624;53.242;6.974;2023-03-12T07:15:32;1.00;99.90
52731;DHT22;38624;53.242;6.974;2023-03-12T07:18:03;1.00;99.90
52731;DHT22;38624;53.242;6.974;2023-03-12T07:20:29;1.10;99.90
52731;DHT22;38624;53.242;6.974;2023-03-12T07:22:54;1.20;99.90
52731;DHT22;38624;53.242;6.974;2023-03-12T07:25:20;1.30;99.90
52731;DHT22;38624;53.242;6.974;2023-03-12T07:27:46;1.30;99.90
52731;DHT22;38624;53.242;6.974;2023-03-12T07:30:11;2.10;99.90
52731;DHT22;38624;53.242;6.974;2023-03-12T07:32:37;1.40;99.90
52731;DHT22;38624;53.242;6.974;2023-03-12T07:35:04;1.40;99.90
52731;DHT22;38624;53.242;6.974;2023-03-12T07:37:30;1.40;99.90
52731;DHT22;38624;53.242;6.974;2023-03-12T07:39:55;2.20;99.90
52731;DHT22;38624;53.242;6.974;2023-03-12T07:42:21;1.40;99.90
52731;DHT22;38624;53.242;6.974;2023-03-12T07:44:47;1.90;99.90
52731;DHT22;38624;53.242;6.974;2023-03-12T07:47:13;1.40;99.90
52731;DHT22;38624;53.242;6.974;2023-03-12T07:49:39;1.60;99.90
52731;DHT22;38624;53.242;6.974;2023-03-12T07:52:07;1.40;99.90
52731;DHT22;38624;53.242;6.974;2023-03-12T07:54:36;2.00;99.90
52731;DHT22;38624;53.242;6.974;2023-03-12T07:57:02;1.60;99.90
52731;DHT22;38624;53.242;6.974;2023-03-12T07:59:28;1.50;99.90
52731;DHT22;38624;53.242;6.974;2023-03-12T08:01:54;1.90;99.90
52731;DHT22;38624;53.242;6.974;2023-03-12T08:04:20;2.70;99.90
52731;DHT22;38624;53.242;6.974;2023-03-12T08:06:45;2.50;99.90
52731;DHT22;38624;53.242;6.974;2023-03-12T08:09:11;2.60;99.90
52731;DHT22;38624;53.242;6.974;2023-03-12T08:11:37;1.70;99.90
52731;DHT22;38624;53.242;6.974;2023-03-12T08:14:03;2.00;99.90
52731;DHT22;38624;53.242;6.974;2023-03-12T08:16:29;1.70;99.90
52731;DHT22;38624;53.242;6.974;2023-03-12T08:18:55;2.20;99.90
52731;DHT22;38624;53.242;6.974;2023-03-12T08:21:21;1.80;99.90
52731;DHT22;38624;53.242;6.974;2023-03-12T08:23:46;2.10;99.90
52731;DHT22;38624;53.242;6.974;2023-03-12T08:26:12;1.80;99.90
52731;DHT22;38624;53.242;6.974;2023-03-12T08:28:38;2.60;99.90
52731;DHT22;38624;53.242;6.974;2023-03-12T08:31:05;1.60;99.90
52731;DHT22;38624;53.242;6.974;2023-03-12T08:33:30;2.80;99.90
52731;DHT22;38624;53.242;6.974;2023-03-12T08:35:56;1.60;99.90
52731;DHT22;38624;53.242;6.974;2023-03-12T08:38:22;2.00;99.90
52731;DHT22;38624;53.242;6.974;2023-03-12T08:40:58;2.00;99.90
52731;DHT22;38624;53.242;6.974;2023-03-12T08:43:24;2.10;99.90
52731;DHT22;38624;53.242;6.974;2023-03-12T08:45:58;1.90;99.90
52731;DHT22;38624;53.242;6.974;2023-03-12T08:48:25;2.70;99.90
52731;DHT22;38624;53.242;6.974;2023-03-12T08:50:50;1.60;99.90
52731;DHT22;38624;53.242;6.974;2023-03-12T08:53:18;3.00;99.90
52731;DHT22;38624;53.242;6.974;2023-03-12T08:55:44;2.60;99.90
52731;DHT22;38624;53.242;6.974;2023-03-12T08:58:10;1.90;99.90
52731;DHT22;38624;53.242;6.974;2023-03-12T09:00:36;1.70;99.90
52731;DHT22;38624;53.242;6.974;2023-03-12T09:03:01;2.30;99.90
52731;DHT22;38624;53.242;6.974;2023-03-12T09:05:27;1.70;99.90
52731;DHT22;38624;53.242;6.974;2023-03-12T09:07:55;2.40;99.90
52731;DHT22;38624;53.242;6.974;2023-03-12T09:10:21;2.50;99.90
52731;DHT22;38624;53.242;6.974;2023-03-12T09:12:47;1.80;99.90
52731;DHT22;38624;53.242;6.974;2023-03-12T09:15:13;1.80;99.90
52731;DHT22;38624;53.242;6.974;2023-03-12T09:17:38;1.80;99.90
52731;DHT22;38624;53.242;6.974;2023-03-12T09:20:07;1.90;99.90
52731;DHT22;38624;53.242;6.974;2023-03-12T09:22:36;1.90;99.90
52731;DHT22;38624;53.242;6.974;2023-03-12T09:25:07;1.90;99.90
52731;DHT22;38624;53.242;6.974;2023-03-12T09:27:38;1.90;99.90
52731;DHT22;38624;53.242;6.974;2023-03-12T09:30:05;2.60;99.90
52731;DHT22;38624;53.242;6.974;2023-03-12T09:32:31;1.90;99.90
52731;DHT22;38624;53.242;6.974;2023-03-12T09:34:57;2.50;99.90
52731;DHT22;38624;53.242;6.974;2023-03-12T09:37:23;1.90;99.90
52731;DHT22;38624;53.242;6.974;2023-03-12T09:39:49;1.80;99.90
52731;DHT22;38624;53.242;6.974;2023-03-12T09:42:30;1.80;99.90
52731;DHT22;38624;53.242;6.974;2023-03-12T09:45:02;2.80;99.90
52731;DHT22;38624;53.242;6.974;2023-03-12T09:47:32;1.80;99.90
52731;DHT22;38624;53.242;6.974;2023-03-12T09:50:16;2.20;99.90
52731;DHT22;38624;53.242;6.974;2023-03-12T09:53:32;1.90;99.90
52731;DHT22;38624;53.242;6.974;2023-03-12T09:55:41;1.80;99.90
52731;DHT22;38624;53.242;6.974;2023-03-12T09:58:24;2.50;99.90
52731;DHT22;38624;53.242;6.974;2023-03-12T10:01:11;1.80;99.90
52731;DHT22;38624;53.242;6.974;2023-03-12T10:06:24;1.70;99.90
52731;DHT22;38624;53.242;6.974;2023-03-12T10:09:26;2.90;99.90
52731;DHT22;38624;53.242;6.974;2023-03-12T10:23:13;1.60;99.90
52731;DHT22;38624;53.242;6.974;2023-03-12T10:28:38;1.60;99.90
52731;DHT22;38624;53.242;6.974;2023-03-12T10:31:22;1.60;99.90
52731;DHT22;38624;53.242;6.974;2023-03-12T10:33:55;1.60;99.90
52731;DHT22;38624;53.242;6.974;2023-03-12T10:36:37;1.60;99.90
52731;DHT22;38624;53.242;6.974;2023-03-12T10:39:04;1.60;99.90
52731;DHT22;38624;53.242;6.974;2023-03-12T10:41:35;1.60;99.90
52731;DHT22;38624;53.242;6.974;2023-03-12T10:44:06;1.60;99.90
52731;DHT22;38624;53.242;6.974;2023-03-12T10:52:15;1.80;99.90
52731;DHT22;38624;53.242;6.974;2023-03-12T10:54:43;1.90;99.90
52731;DHT22;38624;53.242;6.974;2023-03-12T10:57:10;1.90;99.90
52731;DHT22;38624;53.242;6.974;2023-03-12T10:59:39;2.00;99.90
52731;DHT22;38624;53.242;6.974;2023-03-12T11:02:31;2.10;99.90
52731;DHT22;38624;53.242;6.974;2023-03-12T11:04:57;2.00;99.90
52731;DHT22;38624;53.242;6.974;2023-03-12T11:07:32;2.10;99.90
52731;DHT22;38624;53.242;6.974;2023-03-12T11:10:19;2.10;99.90
52731;DHT22;38624;53.242;6.974;2023-03-12T11:13:18;2.10;99.90
52731;DHT22;38624;53.242;6.974;2023-03-12T11:15:42;2.60;99.90
52731;DHT22;38624;53.242;6.974;2023-03-12T11:18:24;2.00;99.90
52731;DHT22;38624;53.242;6.974;2023-03-12T11:23:34;2.10;99.90
52731;DHT22;38624;53.242;6.974;2023-03-12T11:26:02;2.00;99.90
52731;DHT22;38624;53.242;6.974;2023-03-12T11:28:42;2.70;99.90
52731;DHT22;38624;53.242;6.974;2023-03-12T11:31:22;2.10;99.90
52731;DHT22;38624;53.242;6.974;2023-03-12T11:33:51;3.00;99.90
52731;DHT22;38624;53.242;6.974;2023-03-12T11:42:07;2.10;99.90
52731;DHT22;38624;53.242;6.974;2023-03-12T11:47:36;2.20;99.90
52731;DHT22;38624;53.242;6.974;2023-03-12T11:53:08;2.90;99.90
52731;DHT22;38624;53.242;6.974;2023-03-12T11:55:55;2.60;99.90
52731;DHT22;38624;53.242;6.974;2023-03-12T11:58:37;2.40;99.90
52731;DHT22;38624;53.242;6.974;2023-03-12T12:01:12;2.40;99.90
52731;DHT22;38624;53.242;6.974;2023-03-12T12:03:52;2.40;99.90
52731;DHT22;38624;53.242;6.974;2023-03-12T12:06:27;2.40;99.90
52731;DHT22;38624;53.242;6.974;2023-03-12T12:09:41;2.40;99.90
52731;DHT22;38624;53.242;6.974;2023-03-12T12:12:33;2.50;99.90
52731;DHT22;38624;53.242;6.974;2023-03-12T12:31:54;2.80;99.90
52731;DHT22;38624;53.242;6.974;2023-03-12T12:37:29;2.90;99.90
52731;DHT22;38624;53.242;6.974;2023-03-12T12:43:03;3.10;99.90
52731;DHT22;38624;53.242;6.974;2023-03-12T12:45:31;3.10;99.90
52731;DHT22;38624;53.242;6.974;2023-03-12T12:48:07;3.20;99.90
52731;DHT22;38624;53.242;6.974;2023-03-12T12:50:38;3.20;99.90
52731;DHT22;38624;53.242;6.974;2023-03-12T12:53:12;3.30;99.90
52731;DHT22;38624;53.242;6.974;2023-03-12T12:56:05;3.40;99.90
52731;DHT22;38624;53.242;6.974;2023-03-12T13:01:13;3.70;99.90
52731;DHT22;38624;53.242;6.974;2023-03-12T13:03:39;3.80;99.90
52731;DHT22;38624;53.242;6.974;2023-03-12T13:06:06;3.90;99.90
52731;DHT22;38624;53.242;6.974;2023-03-12T13:11:04;3.90;99.90
52731;DHT22;38624;53.242;6.974;2023-03-12T13:13:30;4.30;99.90
52731;DHT22;38624;53.242;6.974;2023-03-12T13:19:22;4.30;99.90
52731;DHT22;38624;53.242;6.974;2023-03-12T13:22:03;4.40;99.90
52731;DHT22;38624;53.242;6.974;2023-03-12T13:24:42;4.50;99.90
52731;DHT22;38624;53.242;6.974;2023-03-12T13:27:22;4.60;99.90
52731;DHT22;38624;53.242;6.974;2023-03-12T13:29:49;4.80;99.90
52731;DHT22;38624;53.242;6.974;2023-03-12T13:34:59;5.00;99.90
52731;DHT22;38624;53.242;6.974;2023-03-12T13:37:46;5.10;99.90
52731;DHT22;38624;53.242;6.974;2023-03-12T13:43:13;5.10;99.90
52731;DHT22;38624;53.242;6.974;2023-03-12T13:46:06;5.10;99.90
52731;DHT22;38624;53.242;6.974;2023-03-12T13:48:35;5.20;99.90
52731;DHT22;38624;53.242;6.974;2023-03-12T13:51:19;5.30;99.90
52731;DHT22;38624;53.242;6.974;2023-03-12T13:53:53;5.40;99.90
52731;DHT22;38624;53.242;6.974;2023-03-12T13:56:30;5.50;99.90
52731;DHT22;38624;53.242;6.974;2023-03-12T13:59:14;5.60;99.90
52731;DHT22;38624;53.242;6.974;2023-03-12T14:01:45;5.80;99.90
52731;DHT22;38624;53.242;6.974;2023-03-12T14:04:19;5.80;99.90
52731;DHT22;38624;53.242;6.974;2023-03-12T14:09:56;6.10;99.90
52731;DHT22;38624;53.242;6.974;2023-03-12T14:17:42;6.20;99.90
52731;DHT22;38624;53.242;6.974;2023-03-12T14:20:16;6.40;99.90
52731;DHT22;38624;53.242;6.974;2023-03-12T14:22:48;6.30;99.90
52731;DHT22;38624;53.242;6.974;2023-03-12T14:25:40;6.40;99.90
52731;DHT22;38624;53.242;6.974;2023-03-12T14:28:16;6.40;99.90
52731;DHT22;38624;53.242;6.974;2023-03-12T14:30:54;6.50;99.90
52731;DHT22;38624;53.242;6.974;2023-03-12T14:33:22;6.50;99.90
52731;DHT22;38624;53.242;6.974;2023-03-12T14:36:05;6.60;99.90
52731;DHT22;38624;53.242;6.974;2023-03-12T14:38:38;6.60;99.90
52731;DHT22;38624;53.242;6.974;2023-03-12T14:41:24;6.60;99.90
52731;DHT22;38624;53.242;6.974;2023-03-12T14:43:53;6.70;99.90
52731;DHT22;38624;53.242;6.974;2023-03-12T14:46:23;6.80;99.90
52731;DHT22;38624;53.242;6.974;2023-03-12T14:48:51;6.90;99.90
52731;DHT22;38624;53.242;6.974;2023-03-12T14:51:21;6.90;99.90
52731;DHT22;38624;53.242;6.974;2023-03-12T14:53:47;7.00;99.90
52731;DHT22;38624;53.242;6.974;2023-03-12T14:56:30;7.00;99.90
52731;DHT22;38624;53.242;6.974;2023-03-12T14:59:03;7.20;99.90
52731;DHT22;38624;53.242;6.974;2023-03-12T15:01:32;7.30;99.90
52731;DHT22;38624;53.242;6.974;2023-03-12T15:04:17;7.50;99.90
52731;DHT22;38624;53.242;6.974;2023-03-12T15:06:47;7.60;99.90
52731;DHT22;38624;53.242;6.974;2023-03-12T15:09:18;7.60;99.90
52731;DHT22;38624;53.242;6.974;2023-03-12T15:11:53;7.70;99.90
52731;DHT22;38624;53.242;6.974;2023-03-12T15:14:20;7.80;99.90
52731;DHT22;38624;53.242;6.974;2023-03-12T15:16:47;7.80;99.90
52731;DHT22;38624;53.242;6.974;2023-03-12T15:19:17;7.80;99.90
52731;DHT22;38624;53.242;6.974;2023-03-12T15:21:43;7.80;99.90
52731;DHT22;38624;53.242;6.974;2023-03-12T15:24:11;7.80;99.90
52731;DHT22;38624;53.242;6.974;2023-03-12T15:26:38;7.80;99.90
52731;DHT22;38624;53.242;6.974;2023-03-12T15:31:44;7.80;99.90
52731;DHT22;38624;53.242;6.974;2023-03-12T15:34:11;7.80;99.90
52731;DHT22;38624;53.242;6.974;2023-03-12T15:36:45;7.80;99.90
52731;DHT22;38624;53.242;6.974;2023-03-12T15:39:26;7.90;99.90
52731;DHT22;38624;53.242;6.974;2023-03-12T15:41:53;7.90;99.90
52731;DHT22;38624;53.242;6.974;2023-03-12T15:44:24;8.00;99.90
52731;DHT22;38624;53.242;6.974;2023-03-12T15:46:53;7.90;99.90
52731;DHT22;38624;53.242;6.974;2023-03-12T15:49:29;8.00;99.90
52731;DHT22;38624;53.242;6.974;2023-03-12T15:54:24;8.00;99.90
52731;DHT22;38624;53.242;6.974;2023-03-12T15:56:51;8.20;99.90
52731;DHT22;38624;53.242;6.974;2023-03-12T15:59:24;8.10;99.90
52731;DHT22;38624;53.242;6.974;2023-03-12T16:01:54;8.10;99.90
52731;DHT22;38624;53.242;6.974;2023-03-12T16:04:21;8.10;99.90
52731;DHT22;38624;53.242;6.974;2023-03-12T16:06:48;8.10;99.90
52731;DHT22;38624;53.242;6.974;2023-03-12T16:09:25;8.20;99.90
52731;DHT22;38624;53.242;6.974;2023-03-12T16:11:52;8.20;99.90
52731;DHT22;38624;53.242;6.974;2023-03-12T16:14:27;8.20;99.90
52731;DHT22;38624;53.242;6.974;2023-03-12T16:16:54;8.20;99.90
52731;DHT22;38624;53.242;6.974;2023-03-12T16:19:21;8.20;99.90
52731;DHT22;38624;53.242;6.974;2023-03-12T16:21:47;8.30;99.90
52731;DHT22;38624;53.242;6.974;2023-03-12T16:24:14;8.40;99.90
52731;DHT22;38624;53.242;6.974;2023-03-12T16:26:59;8.30;99.90
52731;DHT22;38624;53.242;6.974;2023-03-12T16:29:34;8.40;99.90
52731;DHT22;38624;53.242;6.974;2023-03-12T16:32:00;8.40;99.90
52731;DHT22;38624;53.242;6.974;2023-03-12T16:34:27;8.30;99.90
52731;DHT22;38624;53.242;6.974;2023-03-12T16:36:53;8.30;99.90
52731;DHT22;38624;53.242;6.974;2023-03-12T16:39:19;8.30;99.90
52731;DHT22;38624;53.242;6.974;2023-03-12T16:41:45;8.30;99.90
52731;DHT22;38624;53.242;6.974;2023-03-12T16:44:19;8.30;99.90
52731;DHT22;38624;53.242;6.974;2023-03-12T16:46:45;8.30;99.90
52731;DHT22;38624;53.242;6.974;2023-03-12T16:49:16;8.20;99.90
52731;DHT22;38624;53.242;6.974;2023-03-12T16:51:42;8.30;99.90
52731;DHT22;38624;53.242;6.974;2023-03-12T16:54:08;8.20;99.90
52731;DHT22;38624;53.242;6.974;2023-03-12T16:56:34;8.20;99.90
52731;DHT22;38624;53.242;6.974;2023-03-12T16:59:05;8.10;99.90
52731;DHT22;38624;53.242;6.974;2023-03-12T17:01:31;8.10;99.90
52731;DHT22;38624;53.242;6.974;2023-03-12T17:03:57;8.00;99.90
52731;DHT22;38624;53.242;6.974;2023-03-12T17:06:24;8.00;99.90
52731;DHT22;38624;53.242;6.974;2023-03-12T17:08:51;7.90;99.90
52731;DHT22;38624;53.242;6.974;2023-03-12T17:11:29;7.90;99.90
52731;DHT22;38624;53.242;6.974;2023-03-12T17:14:00;7.90;99.90
52731;DHT22;38624;53.242;6.974;2023-03-12T17:16:26;7.80;99.90
52731;DHT22;38624;53.242;6.974;2023-03-12T17:18:52;7.80;99.90
52731;DHT22;38624;53.242;6.974;2023-03-12T17:21:18;7.80;99.90
52731;DHT22;38624;53.242;6.974;2023-03-12T17:23:46;7.70;99.90